SWR5MJ EDDH-EDDL
Flight info
| Callsign | SWR5MJ |
|---|---|
| Flight time | 0h 47m |
| Altitude | 27000 |
| Route | IDEKO7G/33 IDEKO N850 NIE/N0423F260 DCT DENOL T851 HALME HALME1A |
| Aircraft | A20N/M-SDE2E3FGHIRWXY/LB1 |
Departure
| Time | 2026-05-05 14:50 |
|---|---|
| Airport | Hamburg Helmut Schmidt Airport (EDDH) |
Arrival
| Time | 2026-05-05 15:37 |
|---|---|
| Airport | Düsseldorf Airport (EDDL) |
| Time | Latitude | Longitude | Altitude | Speed | Heading |
|---|---|---|---|---|---|
| 2026-05-05 14:09 | 53.62809 | 10.00244 | 44 ft | 0 kts | 62° |
| 2026-05-05 14:43 | 53.62803 | 10.00228 | 42 ft | 2 kts | 62° |
| 2026-05-05 14:43 | 53.62796 | 10.00206 | 42 ft | 2 kts | 62° |
| 2026-05-05 14:44 | 53.62787 | 10.00175 | 41 ft | 3 kts | 78° |
| 2026-05-05 14:44 | 53.62786 | 10.00162 | 41 ft | 0 kts | 88° |
| 2026-05-05 14:44 | 53.62788 | 10.00182 | 41 ft | 2 kts | 78° |
| 2026-05-05 14:45 | 53.62792 | 10.00199 | 40 ft | 3 kts | 66° |
| 2026-05-05 14:45 | 53.62782 | 10.00166 | 40 ft | 3 kts | 44° |
| 2026-05-05 14:45 | 53.62764 | 10.00146 | 40 ft | 3 kts | 16° |
| 2026-05-05 14:45 | 53.62749 | 10.00141 | 43 ft | 0 kts | 359° |
| 2026-05-05 14:47 | 53.62780 | 10.00125 | 42 ft | 15 kts | 339° |
| 2026-05-05 14:48 | 53.62808 | 10.00104 | 43 ft | 6 kts | 335° |
| 2026-05-05 14:48 | 53.62855 | 10.00047 | 45 ft | 10 kts | 312° |
| 2026-05-05 14:48 | 53.62872 | 10.00019 | 45 ft | 3 kts | 301° |
| 2026-05-05 14:48 | 53.62844 | 9.99929 | 45 ft | 25 kts | 236° |
| 2026-05-05 14:49 | 53.62882 | 9.99733 | 47 ft | 31 kts | 336° |
| 2026-05-05 14:49 | 53.63265 | 9.99399 | 50 ft | 97 kts | 333° |
| 2026-05-05 14:49 | 53.64054 | 9.98728 | 53 ft | 154 kts | 334° |
| 2026-05-05 14:49 | 53.65063 | 9.97855 | 518 ft | 163 kts | 335° |
| 2026-05-05 14:50 | 53.66047 | 9.96987 | 1301 ft | 160 kts | 335° |
| 2026-05-05 14:50 | 53.67024 | 9.96111 | 2048 ft | 157 kts | 335° |
| 2026-05-05 14:50 | 53.67978 | 9.95252 | 2758 ft | 154 kts | 335° |
| 2026-05-05 14:50 | 53.68926 | 9.94392 | 3458 ft | 156 kts | 334° |
| 2026-05-05 14:51 | 53.69562 | 9.93814 | 3919 ft | 157 kts | 333° |
| 2026-05-05 14:51 | 53.70537 | 9.92933 | 4648 ft | 160 kts | 332° |
| 2026-05-05 14:51 | 53.71528 | 9.92035 | 5360 ft | 163 kts | 330° |
| 2026-05-05 14:51 | 53.72529 | 9.91121 | 6090 ft | 164 kts | 329° |
| 2026-05-05 14:52 | 53.73541 | 9.90195 | 6811 ft | 166 kts | 328° |
| 2026-05-05 14:52 | 53.74559 | 9.89253 | 7505 ft | 167 kts | 328° |
| 2026-05-05 14:52 | 53.75559 | 9.88235 | 8123 ft | 172 kts | 314° |
| 2026-05-05 14:52 | 53.76136 | 9.86413 | 8514 ft | 187 kts | 275° |
| 2026-05-05 14:53 | 53.75876 | 9.84177 | 8874 ft | 209 kts | 239° |
| 2026-05-05 14:53 | 53.74819 | 9.82599 | 9763 ft | 196 kts | 205° |
| 2026-05-05 14:53 | 53.73502 | 9.81655 | 9791 ft | 213 kts | 205° |
| 2026-05-05 14:53 | 53.72076 | 9.80556 | 9904 ft | 238 kts | 208° |
| 2026-05-05 14:54 | 53.70575 | 9.78984 | 9917 ft | 271 kts | 222° |
| 2026-05-05 14:54 | 53.69262 | 9.76446 | 9913 ft | 304 kts | 238° |
| 2026-05-05 14:54 | 53.68230 | 9.73123 | 9913 ft | 336 kts | 247° |
| 2026-05-05 14:54 | 53.67372 | 9.69286 | 9910 ft | 364 kts | 251° |
| 2026-05-05 14:55 | 53.66553 | 9.65073 | 9911 ft | 389 kts | 252° |
| 2026-05-05 14:55 | 53.65457 | 9.61014 | 9907 ft | 376 kts | 237° |
| 2026-05-05 14:55 | 53.63758 | 9.57861 | 9905 ft | 355 kts | 218° |
| 2026-05-05 14:55 | 53.61626 | 9.55996 | 9908 ft | 338 kts | 197° |
| 2026-05-05 14:56 | 53.59357 | 9.55515 | 9907 ft | 322 kts | 182° |
| 2026-05-05 14:56 | 53.57154 | 9.55558 | 9818 ft | 314 kts | 181° |
| 2026-05-05 14:56 | 53.54989 | 9.55548 | 10105 ft | 308 kts | 183° |
| 2026-05-05 14:56 | 53.52788 | 9.55368 | 10269 ft | 327 kts | 186° |
| 2026-05-05 14:57 | 53.50488 | 9.55022 | 10920 ft | 334 kts | 188° |
| 2026-05-05 14:57 | 53.48161 | 9.54597 | 11772 ft | 338 kts | 188° |
| 2026-05-05 14:57 | 53.45808 | 9.54136 | 12583 ft | 343 kts | 188° |
| 2026-05-05 14:57 | 53.43419 | 9.53659 | 13407 ft | 348 kts | 188° |
| 2026-05-05 14:58 | 53.41026 | 9.53182 | 14143 ft | 352 kts | 188° |
| 2026-05-05 14:58 | 53.38582 | 9.52698 | 14897 ft | 355 kts | 189° |
| 2026-05-05 14:58 | 53.36084 | 9.52207 | 15642 ft | 358 kts | 189° |
| 2026-05-05 14:58 | 53.33590 | 9.51718 | 16366 ft | 362 kts | 189° |
| 2026-05-05 14:59 | 53.31072 | 9.51225 | 17071 ft | 366 kts | 189° |
| 2026-05-05 14:59 | 53.28562 | 9.50732 | 17774 ft | 370 kts | 189° |
| 2026-05-05 14:59 | 53.25991 | 9.50229 | 18439 ft | 373 kts | 189° |
| 2026-05-05 14:59 | 53.23401 | 9.49722 | 19076 ft | 376 kts | 189° |
| 2026-05-05 15:00 | 53.20797 | 9.49214 | 19717 ft | 378 kts | 189° |
| 2026-05-05 15:00 | 53.19026 | 9.48869 | 20127 ft | 380 kts | 189° |
| 2026-05-05 15:00 | 53.15518 | 9.48185 | 20961 ft | 384 kts | 189° |
| 2026-05-05 15:00 | 53.12854 | 9.47667 | 21586 ft | 387 kts | 189° |
| 2026-05-05 15:01 | 53.10170 | 9.47146 | 22197 ft | 389 kts | 189° |
| 2026-05-05 15:01 | 53.07497 | 9.46408 | 22795 ft | 389 kts | 199° |
| 2026-05-05 15:01 | 53.05041 | 9.44577 | 23378 ft | 386 kts | 215° |
| 2026-05-05 15:01 | 53.02961 | 9.41781 | 23908 ft | 386 kts | 224° |
| 2026-05-05 15:02 | 53.01007 | 9.38798 | 24441 ft | 387 kts | 224° |
| 2026-05-05 15:02 | 52.99031 | 9.35755 | 24956 ft | 389 kts | 224° |
| 2026-05-05 15:02 | 52.97037 | 9.32702 | 25469 ft | 390 kts | 224° |
| 2026-05-05 15:02 | 52.95002 | 9.29611 | 25944 ft | 393 kts | 223° |
| 2026-05-05 15:03 | 52.93006 | 9.26600 | 26436 ft | 394 kts | 223° |
| 2026-05-05 15:03 | 52.90966 | 9.23534 | 26784 ft | 397 kts | 223° |
| 2026-05-05 15:03 | 52.88918 | 9.20465 | 26887 ft | 397 kts | 223° |
| 2026-05-05 15:03 | 52.86866 | 9.17393 | 26894 ft | 397 kts | 223° |
| 2026-05-05 15:04 | 52.84816 | 9.14331 | 26895 ft | 397 kts | 223° |
| 2026-05-05 15:04 | 52.82765 | 9.11269 | 26896 ft | 397 kts | 223° |
| 2026-05-05 15:04 | 52.80708 | 9.08203 | 26892 ft | 398 kts | 223° |
| 2026-05-05 15:04 | 52.78653 | 9.05144 | 26891 ft | 398 kts | 223° |
| 2026-05-05 15:05 | 52.74559 | 8.99059 | 26893 ft | 399 kts | 223° |
| 2026-05-05 15:05 | 52.72498 | 8.96003 | 26892 ft | 399 kts | 223° |
| 2026-05-05 15:05 | 52.70428 | 8.92937 | 26889 ft | 399 kts | 223° |
| 2026-05-05 15:06 | 52.68365 | 8.89886 | 26890 ft | 400 kts | 222° |
| 2026-05-05 15:06 | 52.66284 | 8.86812 | 26891 ft | 400 kts | 222° |
| 2026-05-05 15:06 | 52.64210 | 8.83754 | 26890 ft | 400 kts | 222° |
| 2026-05-05 15:06 | 52.62128 | 8.80686 | 26891 ft | 401 kts | 222° |
| 2026-05-05 15:07 | 52.60057 | 8.77639 | 26887 ft | 401 kts | 222° |
| 2026-05-05 15:07 | 52.57960 | 8.74559 | 26889 ft | 401 kts | 222° |
| 2026-05-05 15:07 | 52.55879 | 8.71506 | 26888 ft | 401 kts | 222° |
| 2026-05-05 15:07 | 52.53796 | 8.68453 | 26889 ft | 401 kts | 222° |
| 2026-05-05 15:08 | 52.51736 | 8.65439 | 26889 ft | 401 kts | 222° |
| 2026-05-05 15:08 | 52.49650 | 8.62391 | 26891 ft | 402 kts | 222° |
| 2026-05-05 15:08 | 52.47557 | 8.59336 | 26886 ft | 402 kts | 222° |
| 2026-05-05 15:08 | 52.45466 | 8.56288 | 26889 ft | 402 kts | 222° |
| 2026-05-05 15:09 | 52.43375 | 8.53245 | 26891 ft | 402 kts | 221° |
| 2026-05-05 15:09 | 52.41280 | 8.50200 | 26889 ft | 402 kts | 221° |
| 2026-05-05 15:09 | 52.39185 | 8.47159 | 26889 ft | 403 kts | 221° |
| 2026-05-05 15:09 | 52.37085 | 8.44114 | 26890 ft | 403 kts | 221° |
| 2026-05-05 15:10 | 52.34987 | 8.41076 | 26891 ft | 403 kts | 221° |
| 2026-05-05 15:10 | 52.32890 | 8.38043 | 26889 ft | 403 kts | 221° |
| 2026-05-05 15:10 | 52.30790 | 8.35011 | 26887 ft | 403 kts | 221° |
| 2026-05-05 15:10 | 52.28683 | 8.31973 | 26887 ft | 403 kts | 221° |
| 2026-05-05 15:11 | 52.26585 | 8.28951 | 26888 ft | 403 kts | 221° |
| 2026-05-05 15:11 | 52.24482 | 8.25927 | 26888 ft | 403 kts | 221° |
| 2026-05-05 15:11 | 52.22379 | 8.22907 | 26886 ft | 402 kts | 221° |
| 2026-05-05 15:11 | 52.20271 | 8.19882 | 26884 ft | 403 kts | 221° |
| 2026-05-05 15:12 | 52.18160 | 8.16858 | 26888 ft | 404 kts | 221° |
| 2026-05-05 15:12 | 52.16055 | 8.13845 | 26884 ft | 403 kts | 221° |
| 2026-05-05 15:12 | 52.13973 | 8.10871 | 26886 ft | 403 kts | 221° |
| 2026-05-05 15:12 | 52.11853 | 8.07845 | 26886 ft | 403 kts | 221° |
| 2026-05-05 15:13 | 52.09734 | 8.04825 | 26885 ft | 403 kts | 221° |
| 2026-05-05 15:13 | 52.07647 | 8.01855 | 26882 ft | 403 kts | 221° |
| 2026-05-05 15:13 | 52.05536 | 7.98855 | 26872 ft | 403 kts | 221° |
| 2026-05-05 15:13 | 52.03396 | 7.95816 | 26565 ft | 403 kts | 221° |
| 2026-05-05 15:14 | 52.01300 | 7.92844 | 25816 ft | 407 kts | 220° |
| 2026-05-05 15:14 | 51.99145 | 7.89792 | 24846 ft | 415 kts | 220° |
| 2026-05-05 15:14 | 51.96977 | 7.86727 | 24278 ft | 411 kts | 220° |
| 2026-05-05 15:14 | 51.94841 | 7.83709 | 23842 ft | 403 kts | 220° |
| 2026-05-05 15:15 | 51.92736 | 7.80739 | 23199 ft | 400 kts | 220° |
| 2026-05-05 15:15 | 51.90657 | 7.77810 | 22695 ft | 393 kts | 220° |
| 2026-05-05 15:15 | 51.88601 | 7.74918 | 22155 ft | 387 kts | 220° |
| 2026-05-05 15:15 | 51.86700 | 7.71875 | 21606 ft | 383 kts | 228° |
| 2026-05-05 15:16 | 51.85112 | 7.68443 | 21087 ft | 379 kts | 236° |
| 2026-05-05 15:16 | 51.83853 | 7.64722 | 20567 ft | 376 kts | 243° |
| 2026-05-05 15:16 | 51.82754 | 7.60952 | 20059 ft | 373 kts | 243° |
| 2026-05-05 15:16 | 51.81632 | 7.57133 | 19523 ft | 370 kts | 243° |
| 2026-05-05 15:17 | 51.80527 | 7.53401 | 19009 ft | 367 kts | 243° |
| 2026-05-05 15:17 | 51.79443 | 7.49753 | 18490 ft | 365 kts | 243° |
| 2026-05-05 15:17 | 51.78346 | 7.46070 | 17976 ft | 362 kts | 243° |
| 2026-05-05 15:17 | 51.77256 | 7.42416 | 17457 ft | 359 kts | 243° |
| 2026-05-05 15:18 | 51.76178 | 7.38811 | 16964 ft | 356 kts | 243° |
| 2026-05-05 15:18 | 51.75104 | 7.35222 | 16467 ft | 352 kts | 243° |
| 2026-05-05 15:18 | 51.74042 | 7.31675 | 15969 ft | 349 kts | 243° |
| 2026-05-05 15:18 | 51.72986 | 7.28156 | 15490 ft | 346 kts | 243° |
| 2026-05-05 15:19 | 51.71937 | 7.24667 | 15001 ft | 344 kts | 243° |
| 2026-05-05 15:19 | 51.70718 | 7.21390 | 14524 ft | 339 kts | 231° |
| 2026-05-05 15:19 | 51.69130 | 7.18648 | 14066 ft | 335 kts | 219° |
| 2026-05-05 15:19 | 51.67232 | 7.16450 | 13577 ft | 332 kts | 212° |
| 2026-05-05 15:20 | 51.65299 | 7.14421 | 13093 ft | 329 kts | 212° |
| 2026-05-05 15:20 | 51.63420 | 7.12427 | 12642 ft | 326 kts | 212° |
| 2026-05-05 15:20 | 51.61531 | 7.10417 | 12174 ft | 324 kts | 212° |
| 2026-05-05 15:20 | 51.59662 | 7.08427 | 11731 ft | 321 kts | 212° |
| 2026-05-05 15:21 | 51.57811 | 7.06459 | 11283 ft | 318 kts | 213° |
| 2026-05-05 15:21 | 51.55961 | 7.04494 | 10833 ft | 316 kts | 213° |
| 2026-05-05 15:21 | 51.54139 | 7.02560 | 10388 ft | 313 kts | 213° |
| 2026-05-05 15:21 | 51.52341 | 7.00656 | 10174 ft | 303 kts | 213° |
| 2026-05-05 15:22 | 51.50610 | 6.98822 | 10047 ft | 291 kts | 212° |
| 2026-05-05 15:22 | 51.48946 | 6.97063 | 9821 ft | 283 kts | 213° |
| 2026-05-05 15:22 | 51.47331 | 6.95356 | 9669 ft | 273 kts | 212° |
| 2026-05-05 15:22 | 51.45770 | 6.93706 | 9469 ft | 267 kts | 212° |
| 2026-05-05 15:23 | 51.44222 | 6.92072 | 9123 ft | 266 kts | 212° |
| 2026-05-05 15:23 | 51.42683 | 6.90450 | 8776 ft | 264 kts | 213° |
| 2026-05-05 15:23 | 51.41156 | 6.88844 | 8440 ft | 261 kts | 213° |
| 2026-05-05 15:23 | 51.39702 | 6.87117 | 8096 ft | 259 kts | 224° |
| 2026-05-05 15:24 | 51.38723 | 6.84723 | 7763 ft | 260 kts | 251° |
| 2026-05-05 15:24 | 51.38287 | 6.81884 | 7449 ft | 266 kts | 256° |
| 2026-05-05 15:24 | 51.37885 | 6.78997 | 7126 ft | 265 kts | 256° |
| 2026-05-05 15:24 | 51.37483 | 6.76131 | 6802 ft | 262 kts | 256° |
| 2026-05-05 15:25 | 51.36926 | 6.73392 | 6482 ft | 258 kts | 243° |
| 2026-05-05 15:25 | 51.36117 | 6.70839 | 6170 ft | 256 kts | 242° |
| 2026-05-05 15:25 | 51.35303 | 6.68324 | 5832 ft | 254 kts | 242° |
| 2026-05-05 15:25 | 51.34500 | 6.65852 | 5497 ft | 252 kts | 242° |
| 2026-05-05 15:26 | 51.33689 | 6.63372 | 5177 ft | 251 kts | 242° |
| 2026-05-05 15:26 | 51.32880 | 6.60908 | 4858 ft | 250 kts | 242° |
| 2026-05-05 15:26 | 51.32069 | 6.58458 | 4525 ft | 249 kts | 242° |
| 2026-05-05 15:26 | 51.31259 | 6.56021 | 4188 ft | 248 kts | 242° |
| 2026-05-05 15:27 | 51.30450 | 6.53596 | 3857 ft | 245 kts | 242° |
| 2026-05-05 15:27 | 51.29635 | 6.51247 | 3510 ft | 238 kts | 235° |
| 2026-05-05 15:27 | 51.28580 | 6.49235 | 3191 ft | 235 kts | 228° |
| 2026-05-05 15:27 | 51.27488 | 6.47314 | 3006 ft | 229 kts | 227° |
| 2026-05-05 15:28 | 51.26320 | 6.45783 | 2999 ft | 209 kts | 212° |
| 2026-05-05 15:28 | 51.25130 | 6.44606 | 3008 ft | 195 kts | 211° |
| 2026-05-05 15:28 | 51.23924 | 6.43435 | 3008 ft | 210 kts | 211° |
| 2026-05-05 15:28 | 51.22689 | 6.42243 | 3001 ft | 205 kts | 211° |
| 2026-05-05 15:29 | 51.21451 | 6.41055 | 3004 ft | 208 kts | 210° |
| 2026-05-05 15:29 | 51.20080 | 6.40455 | 3005 ft | 205 kts | 181° |
| 2026-05-05 15:29 | 51.18709 | 6.40535 | 2991 ft | 191 kts | 165° |
| 2026-05-05 15:29 | 51.17436 | 6.41160 | 3003 ft | 192 kts | 160° |
| 2026-05-05 15:30 | 51.16178 | 6.41820 | 3006 ft | 192 kts | 160° |
| 2026-05-05 15:30 | 51.14916 | 6.42491 | 2999 ft | 188 kts | 159° |
| 2026-05-05 15:30 | 51.13661 | 6.43166 | 3002 ft | 191 kts | 160° |
| 2026-05-05 15:30 | 51.12517 | 6.44165 | 3002 ft | 187 kts | 129° |
| 2026-05-05 15:31 | 51.12135 | 6.46057 | 2995 ft | 183 kts | 79° |
| 2026-05-05 15:31 | 51.12779 | 6.47713 | 3014 ft | 180 kts | 38° |
| 2026-05-05 15:31 | 51.13796 | 6.48842 | 2999 ft | 180 kts | 33° |
| 2026-05-05 15:31 | 51.14840 | 6.49947 | 3008 ft | 180 kts | 33° |
| 2026-05-05 15:32 | 51.15876 | 6.51073 | 3002 ft | 179 kts | 34° |
| 2026-05-05 15:32 | 51.16903 | 6.52226 | 2996 ft | 180 kts | 35° |
| 2026-05-05 15:32 | 51.17896 | 6.53428 | 3003 ft | 179 kts | 40° |
| 2026-05-05 15:32 | 51.18758 | 6.54804 | 2996 ft | 171 kts | 48° |
| 2026-05-05 15:33 | 51.19497 | 6.56249 | 3001 ft | 165 kts | 52° |
| 2026-05-05 15:33 | 51.19951 | 6.57205 | 2981 ft | 164 kts | 52° |
| 2026-05-05 15:33 | 51.20646 | 6.58660 | 2805 ft | 165 kts | 52° |
| 2026-05-05 15:33 | 51.21334 | 6.60102 | 2572 ft | 160 kts | 52° |
| 2026-05-05 15:34 | 51.22226 | 6.61968 | 2288 ft | 160 kts | 52° |
| 2026-05-05 15:34 | 51.22884 | 6.63351 | 2076 ft | 153 kts | 52° |
| 2026-05-05 15:34 | 51.23316 | 6.64254 | 1927 ft | 151 kts | 52° |
| 2026-05-05 15:34 | 51.23947 | 6.65581 | 1742 ft | 148 kts | 51° |
| 2026-05-05 15:35 | 51.24575 | 6.66894 | 1527 ft | 151 kts | 51° |
| 2026-05-05 15:35 | 51.25206 | 6.68221 | 1323 ft | 149 kts | 51° |
| 2026-05-05 15:35 | 51.26002 | 6.69895 | 1054 ft | 137 kts | 51° |
| 2026-05-05 15:35 | 51.26380 | 6.70687 | 915 ft | 135 kts | 50° |
| 2026-05-05 15:36 | 51.26956 | 6.71895 | 728 ft | 136 kts | 49° |
| 2026-05-05 15:36 | 51.27523 | 6.73101 | 480 ft | 136 kts | 49° |
| 2026-05-05 15:36 | 51.28099 | 6.74298 | 298 ft | 137 kts | 47° |
| 2026-05-05 15:36 | 51.28676 | 6.75506 | 134 ft | 133 kts | 49° |
| 2026-05-05 15:37 | 51.29079 | 6.76331 | 133 ft | 41 kts | 53° |
| 2026-05-05 15:37 | 51.29251 | 6.76701 | 127 ft | 41 kts | 52° |
| 2026-05-05 15:37 | 51.29413 | 6.77051 | 127 ft | 38 kts | 51° |
| 2026-05-05 15:37 | 51.29555 | 6.77374 | 132 ft | 34 kts | 64° |
| 2026-05-05 15:38 | 51.29580 | 6.77732 | 129 ft | 27 kts | 102° |
| 2026-05-05 15:38 | 51.29477 | 6.77924 | 141 ft | 21 kts | 142° |
| 2026-05-05 15:38 | 51.29365 | 6.78060 | 146 ft | 22 kts | 143° |
| 2026-05-05 15:38 | 51.29240 | 6.78208 | 147 ft | 24 kts | 158° |
| 2026-05-05 15:39 | 51.29061 | 6.78209 | 141 ft | 29 kts | 183° |
| 2026-05-05 15:39 | 51.28875 | 6.78170 | 134 ft | 31 kts | 232° |
| 2026-05-05 15:39 | 51.28846 | 6.78103 | 133 ft | 0 kts | 236° |
| 2026-05-05 15:39 | 51.28839 | 6.78087 | 133 ft | 5 kts | 233° |
| 2026-05-05 15:40 | 51.28806 | 6.78022 | 133 ft | 10 kts | 231° |
| 2026-05-05 15:40 | 51.28754 | 6.77915 | 132 ft | 14 kts | 232° |
| 2026-05-05 15:40 | 51.28684 | 6.77769 | 131 ft | 19 kts | 233° |
| 2026-05-05 15:40 | 51.28605 | 6.77585 | 132 ft | 21 kts | 238° |
| 2026-05-05 15:41 | 51.28543 | 6.77380 | 134 ft | 21 kts | 231° |
| 2026-05-05 15:41 | 51.28459 | 6.77180 | 133 ft | 23 kts | 236° |
| 2026-05-05 15:41 | 51.28358 | 6.76957 | 132 ft | 26 kts | 231° |
| 2026-05-05 15:41 | 51.28216 | 6.76842 | 130 ft | 8 kts | 231° |
| 2026-05-05 15:42 | 51.28210 | 6.76756 | 130 ft | 0 kts | 286° |